Time;durP1;ratioP1;P1;durP2;ratioP2;P2;SDS_P1;SDS_P2;PMS_P1;PMS_P2;Temp;Humidity;BMP_temperature;BMP_pressure;BME280_temperature;BME280_humidity;BME280_pressure;Samples;Min_cycle;Max_cycle;Signal;HPM_P1;HPM_P2
2022/02/11 00:08:36;;;;;;;;;;;;;;;20.82;38.21;102450.31;7281389;19;154797;-50
2022/02/11 00:11:03;;;;;;;;;;;;;;;20.79;38.05;102445.25;7280008;19;154341;-50
2022/02/11 00:13:30;;;;;;;;;;;;;;;20.77;38.10;102457.88;7281962;19;152025;-50
2022/02/11 00:15:57;;;;;;;;;;;;;;;20.75;38.33;102462.94;7281820;19;152927;-50
2022/02/11 00:18:24;;;;;;;;;;;;;;;20.73;38.72;102474.44;7280108;19;155774;-50
2022/02/11 00:20:52;;;;;;;;;;;;;;;20.70;38.66;102483.41;7281178;19;151950;-50
2022/02/11 00:23:19;;;;;;;;;;;;;;;20.68;38.81;102488.44;7287144;19;154580;-50
2022/02/11 00:25:54;;;;;;;;;;;;;;;20.65;38.96;102483.38;7280947;19;152304;-50
2022/02/11 00:33:28;;;;;;;;;;;;;;;20.57;38.85;102486.72;7282051;19;152424;-51
2022/02/11 00:35:59;;;;;;;;;;;;;;;20.54;39.11;102476.00;7280947;19;153881;-50
2022/02/11 00:38:41;;;;;;;;;;;;;;;20.52;38.81;102478.25;7278039;19;153838;-50
2022/02/11 00:46:34;;;;;;;;;;;;;;;20.45;39.03;102507.66;7288929;19;152295;-50
2022/02/11 01:04:30;;;;;;;;;;;;;;;20.23;39.55;102521.78;7280161;19;154679;-50
2022/02/11 01:06:57;;;;;;;;;;;;;;;20.20;39.53;102520.38;7278936;19;153510;-50
2022/02/11 01:09:24;;;;;;;;;;;;;;;20.20;39.68;102530.75;7285691;19;152066;-54
2022/02/11 01:11:54;;;;;;;;;;;;;;;20.17;39.44;102526.50;7279114;19;153464;-50
2022/02/11 01:14:32;;;;;;;;;;;;;;;20.16;39.62;102532.41;7279920;19;151943;-50
2022/02/11 01:17:08;;;;;;;;;;;;;;;20.14;39.79;102529.00;7275180;19;154795;-51
2022/02/11 01:19:52;;;;;;;;;;;;;;;20.09;40.03;102524.19;7277698;19;153529;-50
2022/02/11 01:25:23;;;;;;;;;;;;;;;20.05;39.90;102528.66;7278281;19;153123;-50
2022/02/11 01:27:59;;;;;;;;;;;;;;;20.02;40.08;102529.19;7277760;19;153876;-51
2022/02/11 01:43:46;;;;;;;;;;;;;;;19.93;40.12;102550.44;7278799;19;152566;-51
2022/02/11 01:53:44;;;;;;;;;;;;;;;19.82;39.90;102571.91;7283090;19;152442;-51
2022/02/11 01:59:22;;;;;;;;;;;;;;;19.78;39.91;102567.94;7277171;19;152607;-50
2022/02/11 02:19:53;;;;;;;;;;;;;;;19.60;40.21;102604.75;7275985;19;152775;-49
2022/02/11 02:22:23;;;;;;;;;;;;;;;19.59;40.32;102590.97;7276014;19;153597;-50
2022/02/11 02:27:32;;;;;;;;;;;;;;;19.52;40.39;102594.00;7279268;19;153235;-50
2022/02/11 02:32:57;;;;;;;;;;;;;;;19.49;40.19;102586.09;7278465;19;151725;-51
2022/02/11 02:35:38;;;;;;;;;;;;;;;19.45;40.11;102582.97;7276320;19;154172;-51
2022/02/11 02:58:57;;;;;;;;;;;;;;;19.29;40.77;102622.25;7282553;19;152795;-51
2022/02/11 03:35:18;;;;;;;;;;;;;;;19.04;41.48;102654.38;7283829;19;153245;-50
2022/02/11 04:22:55;;;;;;;;;;;;;;;18.73;41.75;102718.53;7281843;19;152636;-52
2022/02/11 04:55:23;;;;;;;;;;;;;;;18.81;43.62;102751.72;7282280;19;151958;-49
2022/02/11 05:00:38;;;;;;;;;;;;;;;18.92;44.13;102771.28;7289766;19;153787;-50
2022/02/11 05:03:08;;;;;;;;;;;;;;;18.97;43.61;102762.97;7281134;19;154279;-50
2022/02/11 05:05:50;;;;;;;;;;;;;;;19.03;43.60;102761.94;7277729;19;153561;-51
2022/02/11 05:08:18;;;;;;;;;;;;;;;19.09;43.77;102757.28;7280093;19;152448;-50
2022/02/11 05:10:45;;;;;;;;;;;;;;;19.15;43.52;102755.41;7283449;19;152875;-50
2022/02/11 05:13:13;;;;;;;;;;;;;;;19.21;43.68;102757.19;7281072;19;153446;-51
2022/02/11 05:15:40;;;;;;;;;;;;;;;19.27;43.59;102761.75;7283695;19;151983;-50
2022/02/11 05:18:07;;;;;;;;;;;;;;;19.33;43.99;102766.34;7278644;19;153844;-50
2022/02/11 05:20:35;;;;;;;;;;;;;;;19.39;43.97;102763.38;7281789;19;154090;-50
2022/02/11 05:23:08;;;;;;;;;;;;;;;19.44;43.31;102766.28;7287330;19;151992;-50
2022/02/11 05:25:37;;;;;;;;;;;;;;;19.51;43.29;102771.72;7279235;19;153451;-51
2022/02/11 05:28:06;;;;;;;;;;;;;;;19.56;43.29;102779.34;7281818;19;152150;-50
2022/02/11 05:30:33;;;;;;;;;;;;;;;19.61;43.17;102788.69;7283020;19;153541;-50
2022/02/11 05:33:05;;;;;;;;;;;;;;;19.68;43.14;102786.56;7281351;19;153487;-51
2022/02/11 05:35:35;;;;;;;;;;;;;;;19.73;42.98;102797.84;7280991;19;152463;-52
2022/02/11 05:38:02;;;;;;;;;;;;;;;19.79;42.77;102805.25;7279195;19;153331;-50
2022/02/11 05:40:29;;;;;;;;;;;;;;;19.84;42.93;102807.28;7281999;19;153995;-50
2022/02/11 05:42:57;;;;;;;;;;;;;;;19.89;42.46;102805.41;7289650;19;151822;-51
2022/02/11 05:45:26;;;;;;;;;;;;;;;19.95;42.45;102809.09;7278048;19;152594;-50
2022/02/11 05:47:53;;;;;;;;;;;;;;;20.01;42.44;102816.47;7281681;19;151933;-50
2022/02/11 05:50:20;;;;;;;;;;;;;;;20.07;42.29;102820.22;7281772;19;153651;-51
2022/02/11 05:52:54;;;;;;;;;;;;;;;20.12;41.98;102831.50;7279975;19;152650;-49
2022/02/11 05:55:23;;;;;;;;;;;;;;;20.16;41.93;102836.34;7281112;19;152140;-50
2022/02/11 05:57:50;;;;;;;;;;;;;;;20.22;42.12;102837.25;7277689;19;152005;-51
2022/02/11 06:00:17;;;;;;;;;;;;;;;20.27;42.14;102837.31;7276127;19;154023;-50
2022/02/11 06:02:44;;;;;;;;;;;;;;;20.31;42.02;102847.78;7280568;19;151882;-50
2022/02/11 06:05:11;;;;;;;;;;;;;;;20.36;41.97;102849.81;7284632;19;153569;-50
2022/02/11 06:07:38;;;;;;;;;;;;;;;20.40;41.58;102853.78;7280021;19;151931;-50
2022/02/11 06:10:05;;;;;;;;;;;;;;;20.46;41.67;102854.72;7278130;19;151800;-50
2022/02/11 06:12:32;;;;;;;;;;;;;;;20.50;41.88;102865.16;7279089;19;153463;-51
2022/02/11 06:14:58;;;;;;;;;;;;;;;20.55;41.66;102858.75;7281878;19;152212;-51
2022/02/11 06:17:25;;;;;;;;;;;;;;;20.59;41.75;102862.75;7286114;19;151830;-50
2022/02/11 06:19:52;;;;;;;;;;;;;;;20.62;41.81;102871.50;7281522;19;154323;-53
2022/02/11 06:22:19;;;;;;;;;;;;;;;20.67;41.74;102879.97;7287098;19;151839;-50
2022/02/11 06:24:47;;;;;;;;;;;;;;;20.71;41.52;102883.13;7286483;19;152067;-51
2022/02/11 06:27:15;;;;;;;;;;;;;;;20.74;41.06;102891.88;7293217;19;153433;-50
2022/02/11 06:29:42;;;;;;;;;;;;;;;20.79;41.17;102891.09;7284586;19;153545;-51
2022/02/11 06:32:09;;;;;;;;;;;;;;;20.83;41.38;102906.31;7284947;19;153779;-51
2022/02/11 06:34:37;;;;;;;;;;;;;;;20.86;41.29;102909.44;7287639;19;152209;-51
2022/02/11 06:37:06;;;;;;;;;;;;;;;20.91;41.51;102908.63;7287092;19;153462;-51
2022/02/11 06:39:33;;;;;;;;;;;;;;;20.96;41.37;102905.03;7284002;19;154135;-51
2022/02/11 06:42:01;;;;;;;;;;;;;;;21.00;41.37;102911.81;7287548;19;152279;-51
2022/02/11 06:44:29;;;;;;;;;;;;;;;21.03;41.10;102912.13;7286459;19;152757;-51
2022/02/11 06:46:56;;;;;;;;;;;;;;;21.07;40.88;102932.16;7285287;19;155090;-51
2022/02/11 06:49:23;;;;;;;;;;;;;;;21.10;41.14;102934.44;7293942;19;151763;-52
2022/02/11 06:51:49;;;;;;;;;;;;;;;21.15;40.84;102931.72;7285676;19;154161;-51
2022/02/11 06:54:16;;;;;;;;;;;;;;;21.16;40.93;102934.28;7285939;19;152111;-51
2022/02/11 06:56:43;;;;;;;;;;;;;;;21.20;40.99;102929.81;7284903;19;151911;-51
2022/02/11 06:59:10;;;;;;;;;;;;;;;21.23;40.58;102943.31;7280109;19;152732;-52
2022/02/11 07:01:37;;;;;;;;;;;;;;;21.27;40.90;102938.03;7282213;19;152719;-56
2022/02/11 07:04:11;;;;;;;;;;;;;;;21.30;40.57;102946.75;7284960;19;153344;-52
2022/02/11 07:06:38;;;;;;;;;;;;;;;21.33;40.88;102945.41;7285624;19;154028;-52
2022/02/11 07:09:05;;;;;;;;;;;;;;;21.36;40.44;102944.88;7283298;19;152252;-51
2022/02/11 07:11:32;;;;;;;;;;;;;;;21.40;40.46;102954.47;7292854;19;152869;-51
2022/02/11 07:13:59;;;;;;;;;;;;;;;21.43;40.31;102961.53;7285209;19;152140;-51
2022/02/11 07:16:26;;;;;;;;;;;;;;;21.46;40.41;102953.41;7283662;19;152619;-51
2022/02/11 07:18:54;;;;;;;;;;;;;;;21.53;40.19;102970.09;7281709;19;154212;-52
2022/02/11 07:21:21;;;;;;;;;;;;;;;21.54;39.60;102972.59;7286290;19;151923;-52
2022/02/11 07:23:48;;;;;;;;;;;;;;;21.56;39.20;102973.22;7285313;19;153625;-52
2022/02/11 07:26:14;;;;;;;;;;;;;;;21.58;38.89;102978.53;7282841;19;154079;-52
2022/02/11 07:28:42;;;;;;;;;;;;;;;21.59;38.15;102977.44;7283748;19;153041;-52
2022/02/11 07:31:09;;;;;;;;;;;;;;;21.58;37.81;102984.16;7285356;19;153562;-52
2022/02/11 07:33:36;;;;;;;;;;;;;;;21.56;37.52;102981.66;7289831;19;153778;-52
2022/02/11 07:36:03;;;;;;;;;;;;;;;21.55;37.52;102988.38;7282796;19;152208;-52
2022/02/11 07:38:31;;;;;;;;;;;;;;;21.53;37.42;102984.16;7280806;19;152550;-52
2022/02/11 07:40:58;;;;;;;;;;;;;;;21.26;35.17;102981.31;7284473;19;151946;-53
2022/02/11 07:43:24;;;;;;;;;;;;;;;21.23;35.71;102988.31;7284450;19;153424;-53
2022/02/11 07:46:09;;;;;;;;;;;;;;;21.28;35.75;102981.91;7283392;19;154031;-53
2022/02/11 07:48:36;;;;;;;;;;;;;;;21.29;35.59;102992.88;7284551;19;151984;-54
2022/02/11 07:51:03;;;;;;;;;;;;;;;21.28;35.40;102991.19;7284203;19;152670;-53
2022/02/11 07:53:30;;;;;;;;;;;;;;;21.27;35.63;102997.06;7289692;19;153440;-54
2022/02/11 07:55:57;;;;;;;;;;;;;;;21.27;35.73;102997.06;7283627;19;153644;-53
2022/02/11 07:58:25;;;;;;;;;;;;;;;21.23;35.94;103002.38;7280648;19;153570;-53
2022/02/11 08:00:54;;;;;;;;;;;;;;;21.21;36.04;103003.75;7278998;19;151994;-53
2022/02/11 08:03:23;;;;;;;;;;;;;;;21.18;35.63;103007.94;7283444;19;153406;-52
2022/02/11 08:05:50;;;;;;;;;;;;;;;21.14;36.03;103009.56;7283316;19;152893;-53
2022/02/11 08:08:20;;;;;;;;;;;;;;;21.13;36.02;103009.81;7282985;19;151565;-52
2022/02/11 08:10:47;;;;;;;;;;;;;;;21.09;35.73;103022.66;7283646;19;154035;-53
2022/02/11 08:13:14;;;;;;;;;;;;;;;21.06;35.94;103021.25;7279813;19;153574;-52
2022/02/11 08:15:41;;;;;;;;;;;;;;;21.04;36.02;103031.03;7291510;19;153249;-53
2022/02/11 08:18:08;;;;;;;;;;;;;;;21.02;36.26;103030.47;7279245;19;154202;-53
2022/02/11 08:20:54;;;;;;;;;;;;;;;20.97;36.47;103028.44;7284286;19;151917;-53
2022/02/11 08:23:25;;;;;;;;;;;;;;;20.98;36.39;103032.09;7283294;19;153337;-53
2022/02/11 08:25:52;;;;;;;;;;;;;;;20.96;36.50;103035.16;7282733;19;153418;-53
2022/02/11 08:28:19;;;;;;;;;;;;;;;20.94;36.75;103036.56;7281943;19;152666;-53
2022/02/11 08:30:49;;;;;;;;;;;;;;;20.90;36.33;103041.81;7279583;19;152876;-53
2022/02/11 08:33:21;;;;;;;;;;;;;;;20.88;36.58;103051.63;7280711;19;153410;-53
2022/02/11 08:35:49;;;;;;;;;;;;;;;20.84;36.55;103054.97;7283258;19;152203;-53
2022/02/11 08:38:17;;;;;;;;;;;;;;;20.82;36.35;103067.56;7287304;19;153017;-53
2022/02/11 08:40:44;;;;;;;;;;;;;;;20.81;36.56;103061.09;7282640;19;151658;-59
2022/02/11 08:43:11;;;;;;;;;;;;;;;20.80;36.13;103075.41;7282059;19;153955;-54
2022/02/11 08:45:40;;;;;;;;;;;;;;;20.80;36.50;103076.22;7281527;19;153930;-53
2022/02/11 08:48:16;;;;;;;;;;;;;;;20.81;36.34;103080.75;7280504;19;152132;-53
2022/02/11 08:50:44;;;;;;;;;;;;;;;20.81;36.13;103077.94;7282833;19;152522;-53
2022/02/11 08:53:31;;;;;;;;;;;;;;;20.84;36.07;103090.63;7281582;19;153681;-54
2022/02/11 08:56:03;;;;;;;;;;;;;;;20.85;36.49;103095.97;7282872;19;152130;-53
2022/02/11 08:58:30;;;;;;;;;;;;;;;20.86;36.08;103103.31;7278456;19;152538;-53
2022/02/11 09:00:57;;;;;;;;;;;;;;;20.89;36.29;103099.16;7285783;19;153904;-53
2022/02/11 09:03:25;;;;;;;;;;;;;;;20.90;36.39;103099.97;7279005;19;152767;-53
2022/02/11 09:05:52;;;;;;;;;;;;;;;20.92;36.35;103101.44;7282175;19;153619;-53
2022/02/11 09:08:19;;;;;;;;;;;;;;;20.94;36.05;103102.00;7279364;19;153533;-53
2022/02/11 09:10:48;;;;;;;;;;;;;;;20.97;36.00;103106.28;7282618;19;152683;-53
2022/02/11 09:13:15;;;;;;;;;;;;;;;20.99;36.24;103113.31;7280231;19;154253;-53
2022/02/11 09:15:43;;;;;;;;;;;;;;;21.00;35.90;103109.41;7281327;19;152621;-53
2022/02/11 09:18:10;;;;;;;;;;;;;;;21.02;35.71;103110.00;7279504;19;152426;-54
2022/02/11 09:20:37;;;;;;;;;;;;;;;21.02;35.79;103098.78;7280553;19;153459;-53
2022/02/11 09:23:08;;;;;;;;;;;;;;;21.05;35.94;103111.44;7288748;19;151791;-53
2022/02/11 09:25:35;;;;;;;;;;;;;;;21.06;36.06;103101.91;7279396;19;154151;-53
2022/02/11 09:28:01;;;;;;;;;;;;;;;21.06;35.56;103102.75;7279528;19;151673;-53
2022/02/11 09:30:29;;;;;;;;;;;;;;;21.08;35.62;103099.66;7281571;19;153361;-55
2022/02/11 09:32:57;;;;;;;;;;;;;;;21.07;35.43;103098.84;7280125;19;152465;-54
2022/02/11 09:35:30;;;;;;;;;;;;;;;21.08;35.39;103108.09;7281300;19;152355;-54
2022/02/11 09:37:58;;;;;;;;;;;;;;;21.07;35.73;103112.91;7279790;19;152885;-54
2022/02/11 09:40:25;;;;;;;;;;;;;;;21.06;35.23;103102.75;7280273;19;153657;-53
2022/02/11 09:42:53;;;;;;;;;;;;;;;21.06;35.29;103107.53;7279704;19;152021;-53
2022/02/11 09:45:21;;;;;;;;;;;;;;;21.04;35.44;103109.72;7285738;19;152940;-53
2022/02/11 09:47:49;;;;;;;;;;;;;;;21.04;35.49;103118.16;7281630;19;152291;-53
2022/02/11 09:50:15;;;;;;;;;;;;;;;21.03;35.71;103113.69;7282129;19;151795;-51
2022/02/11 09:52:41;;;;;;;;;;;;;;;21.03;35.67;103122.13;7287169;19;152234;-51
2022/02/11 09:57:55;;;;;;;;;;;;;;;21.00;35.66;103126.28;7287774;19;152695;-51
2022/02/11 10:00:24;;;;;;;;;;;;;;;20.99;35.38;103129.34;7281524;19;153485;-52
2022/02/11 10:02:51;;;;;;;;;;;;;;;20.97;35.52;103129.59;7282790;19;152473;-52
2022/02/11 10:05:24;;;;;;;;;;;;;;;20.95;35.42;103126.19;7293043;19;151769;-51
2022/02/11 10:07:51;;;;;;;;;;;;;;;20.92;35.42;103123.91;7286487;19;151993;-51
2022/02/11 10:10:18;;;;;;;;;;;;;;;20.92;35.45;103123.06;7287242;19;152909;-51
2022/02/11 10:12:46;;;;;;;;;;;;;;;20.89;35.64;103121.63;7286420;19;153958;-51
2022/02/11 10:15:19;;;;;;;;;;;;;;;20.87;35.71;103121.03;7285506;19;152262;-51
2022/02/11 10:17:46;;;;;;;;;;;;;;;20.86;35.44;103122.13;7285667;19;153548;-52
2022/02/11 10:20:12;;;;;;;;;;;;;;;20.83;35.36;103126.31;7283885;19;152267;-52
2022/02/11 10:22:41;;;;;;;;;;;;;;;20.81;35.40;103122.03;7284877;19;153287;-52
2022/02/11 10:25:08;;;;;;;;;;;;;;;20.79;35.69;103127.09;7287221;19;153957;-52
2022/02/11 10:27:36;;;;;;;;;;;;;;;20.77;35.61;103123.66;7290975;19;153436;-52
2022/02/11 10:30:04;;;;;;;;;;;;;;;20.74;35.34;103124.19;7286387;19;153519;-52
2022/02/11 10:32:46;;;;;;;;;;;;;;;20.72;35.37;103127.25;7284308;19;154543;-52
2022/02/11 10:35:14;;;;;;;;;;;;;;;20.70;35.71;103128.63;7285284;19;152110;-52
2022/02/11 10:38:04;;;;;;;;;;;;;;;20.68;35.68;103128.88;7284558;19;153013;-52
2022/02/11 10:40:32;;;;;;;;;;;;;;;20.66;35.25;103121.81;7283100;19;154336;-52
2022/02/11 10:43:02;;;;;;;;;;;;;;;20.64;35.64;103129.63;7284981;19;152553;-52
2022/02/11 10:45:39;;;;;;;;;;;;;;;20.62;35.79;103132.72;7286118;19;152669;-52
2022/02/11 10:48:07;;;;;;;;;;;;;;;20.59;35.59;103132.34;7283000;19;153356;-52
2022/02/11 10:50:34;;;;;;;;;;;;;;;20.57;35.32;103128.97;7294005;19;152360;-52
2022/02/11 10:53:08;;;;;;;;;;;;;;;20.55;35.51;103134.84;7284610;19;154200;-52
2022/02/11 10:55:45;;;;;;;;;;;;;;;20.52;35.77;103140.97;7284480;19;152150;-52
2022/02/11 10:58:17;;;;;;;;;;;;;;;20.49;35.83;103141.47;7284870;19;153620;-52
2022/02/11 11:00:44;;;;;;;;;;;;;;;20.48;35.64;103138.94;7282589;19;153509;-52
2022/02/11 11:03:11;;;;;;;;;;;;;;;20.45;35.36;103148.69;7283207;19;152602;-52
2022/02/11 11:05:43;;;;;;;;;;;;;;;20.45;35.55;103147.84;7283270;19;152773;-51
2022/02/11 11:08:11;;;;;;;;;;;;;;;20.41;35.31;103145.56;7284101;19;153627;-52
2022/02/11 11:10:40;;;;;;;;;;;;;;;20.39;35.41;103156.22;7282996;19;152108;-51
2022/02/11 11:13:11;;;;;;;;;;;;;;;20.38;35.61;103165.72;7291504;19;153274;-51
2022/02/11 11:15:40;;;;;;;;;;;;;;;20.37;35.86;103154.75;7286047;19;151609;-51
2022/02/11 11:18:09;;;;;;;;;;;;;;;20.35;35.84;103156.97;7285069;19;153248;-51
2022/02/11 11:20:36;;;;;;;;;;;;;;;20.34;35.86;103158.06;7282149;19;155166;-51
2022/02/11 11:23:15;;;;;;;;;;;;;;;20.31;35.66;103158.56;7282550;19;151925;-53
2022/02/11 11:25:51;;;;;;;;;;;;;;;20.30;35.45;103151.25;7285633;19;153304;-51
2022/02/11 11:28:37;;;;;;;;;;;;;;;20.29;35.69;103146.72;7280602;19;153870;-51
2022/02/11 11:31:22;;;;;;;;;;;;;;;20.30;36.27;103152.13;7285237;19;152480;-52
2022/02/11 11:33:49;;;;;;;;;;;;;;;20.27;36.05;103146.09;7283126;19;152262;-51
2022/02/11 11:36:18;;;;;;;;;;;;;;;20.28;35.94;103140.25;7290692;19;154603;-51
2022/02/11 11:38:54;;;;;;;;;;;;;;;20.28;35.92;103145.84;7279232;19;152215;-51
2022/02/11 11:41:23;;;;;;;;;;;;;;;20.31;36.01;103138.91;7282968;19;154611;-51
2022/02/11 11:43:51;;;;;;;;;;;;;;;20.33;36.23;103136.69;7282871;19;151748;-51
2022/02/11 11:46:19;;;;;;;;;;;;;;;20.35;36.23;103138.13;7283529;19;152680;-52
2022/02/11 11:48:52;;;;;;;;;;;;;;;20.39;36.29;103135.69;7283267;19;153750;-51
2022/02/11 11:51:20;;;;;;;;;;;;;;;20.42;36.19;103129.56;7282667;19;151777;-51
2022/02/11 11:53:46;;;;;;;;;;;;;;;20.46;36.00;103127.94;7283451;19;153834;-54
2022/02/11 11:56:33;;;;;;;;;;;;;;;20.49;36.35;103121.81;7283274;19;154130;-52
2022/02/11 11:59:19;;;;;;;;;;;;;;;20.54;36.28;103115.44;7289716;19;151855;-51
2022/02/11 12:01:53;;;;;;;;;;;;;;;20.57;35.99;103110.16;7283229;19;153056;-52
2022/02/11 12:04:22;;;;;;;;;;;;;;;20.63;36.19;103113.88;7278093;19;152678;-52
2022/02/11 12:06:56;;;;;;;;;;;;;;;20.67;35.99;103104.69;7280995;19;152066;-52
2022/02/11 12:09:24;;;;;;;;;;;;;;;20.72;36.18;103110.41;7280436;19;153535;-52
2022/02/11 12:11:51;;;;;;;;;;;;;;;20.76;36.00;103108.75;7282885;19;152007;-52
2022/02/11 12:14:18;;;;;;;;;;;;;;;20.80;36.20;103109.94;7282217;19;153739;-52
2022/02/11 12:16:46;;;;;;;;;;;;;;;20.83;36.00;103105.78;7282551;19;153370;-52
2022/02/11 12:19:13;;;;;;;;;;;;;;;20.86;35.72;103108.06;7291137;19;151938;-52
2022/02/11 12:21:40;;;;;;;;;;;;;;;20.90;35.57;103103.63;7282408;19;154478;-52
2022/02/11 12:29:51;;;;;;;;;;;;;;;21.00;35.43;103097.31;7281710;19;153927;-52
2022/02/11 12:32:21;;;;;;;;;;;;;;;21.02;35.37;103095.97;7283387;19;151901;-52
2022/02/11 12:34:55;;;;;;;;;;;;;;;21.05;35.26;103106.69;7282453;19;153162;-53
2022/02/11 12:37:23;;;;;;;;;;;;;;;21.07;35.04;103098.00;7282313;19;154147;-53
2022/02/11 12:40:01;;;;;;;;;;;;;;;21.08;34.91;103105.28;7280556;19;151857;-52
2022/02/11 12:42:28;;;;;;;;;;;;;;;21.08;35.08;103103.34;7289925;19;153021;-52
2022/02/11 12:44:55;;;;;;;;;;;;;;;21.08;34.91;103094.06;7281773;19;152590;-52
2022/02/11 12:47:22;;;;;;;;;;;;;;;21.08;34.90;103094.06;7281636;19;153424;-52
2022/02/11 12:49:51;;;;;;;;;;;;;;;21.07;35.00;103096.03;7281405;19;154162;-52
2022/02/11 12:52:19;;;;;;;;;;;;;;;21.06;34.69;103087.84;7280743;19;152283;-52
2022/02/11 12:55:00;;;;;;;;;;;;;;;21.07;34.60;103092.38;7282884;19;152824;-52
2022/02/11 12:57:28;;;;;;;;;;;;;;;21.09;34.54;103081.69;7281202;19;154392;-52
2022/02/11 12:59:54;;;;;;;;;;;;;;;21.09;34.88;103088.19;7281318;19;151948;-52
2022/02/11 13:02:25;;;;;;;;;;;;;;;21.09;34.54;103084.50;7282452;19;152693;-52
2022/02/11 13:05:06;;;;;;;;;;;;;;;21.09;34.58;103087.31;7283283;19;154528;-52
2022/02/11 13:07:37;;;;;;;;;;;;;;;21.09;34.37;103081.69;7278731;19;153571;-52
2022/02/11 13:10:06;;;;;;;;;;;;;;;21.07;34.38;103089.56;7277388;19;153354;-52
2022/02/11 13:12:36;;;;;;;;;;;;;;;21.04;34.69;103087.25;7282407;19;152530;-53
2022/02/11 13:15:07;;;;;;;;;;;;;;;21.01;34.78;103084.97;7279662;19;153776;-52
2022/02/11 13:17:34;;;;;;;;;;;;;;;21.00;34.57;103084.13;7281103;19;154556;-52
2022/02/11 13:20:05;;;;;;;;;;;;;;;21.01;34.64;103087.78;7280944;19;153257;-52
2022/02/11 13:22:33;;;;;;;;;;;;;;;21.01;34.20;103074.59;7279813;19;153423;-52
2022/02/11 13:25:00;;;;;;;;;;;;;;;21.01;34.70;103079.34;7277432;19;153985;-52
2022/02/11 13:27:46;;;;;;;;;;;;;;;20.97;34.59;103073.41;7287066;19;152960;-52
2022/02/11 13:30:15;;;;;;;;;;;;;;;20.94;34.61;103073.09;7280389;19;154137;-52
2022/02/11 13:32:42;;;;;;;;;;;;;;;20.91;34.59;103077.25;7281396;19;152031;-52
2022/02/11 13:35:09;;;;;;;;;;;;;;;20.91;34.32;103082.88;7280828;19;153523;-52
2022/02/11 13:37:36;;;;;;;;;;;;;;;20.89;34.57;103073.00;7280310;19;153729;-52
2022/02/11 13:40:12;;;;;;;;;;;;;;;20.86;34.17;103074.34;7278211;19;152101;-52
2022/02/11 13:42:39;;;;;;;;;;;;;;;20.82;34.36;103064.75;7280691;19;153391;-52
2022/02/11 13:45:08;;;;;;;;;;;;;;;20.79;34.51;103068.94;7279872;19;153675;-52
2022/02/11 13:47:35;;;;;;;;;;;;;;;20.77;34.60;103062.72;7281033;19;152295;-52
2022/02/11 13:50:05;;;;;;;;;;;;;;;20.74;34.41;103062.38;7284843;19;152839;-52
2022/02/11 13:53:03;;;;;;;;;;;;;;;20.72;34.71;103056.16;7281729;19;151927;-52
2022/02/11 13:55:38;;;;;;;;;;;;;;;20.68;34.79;103055.84;7281659;19;152504;-52
2022/02/11 13:58:13;;;;;;;;;;;;;;;20.65;34.77;103053.56;7278944;19;153460;-52
2022/02/11 14:00:41;;;;;;;;;;;;;;;20.63;34.48;103050.13;7278804;19;151676;-52
2022/02/11 14:03:24;;;;;;;;;;;;;;;20.62;34.61;103056.03;7280648;19;152783;-52
2022/02/11 14:05:53;;;;;;;;;;;;;;;20.59;34.41;103051.75;7277772;19;154167;-52
2022/02/11 14:08:21;;;;;;;;;;;;;;;20.56;34.39;103046.69;7277706;19;151589;-52
2022/02/11 14:11:06;;;;;;;;;;;;;;;20.54;34.40;103043.25;7281407;19;153947;-52
2022/02/11 14:13:33;;;;;;;;;;;;;;;20.51;34.82;103040.13;7286757;19;151753;-52
2022/02/11 14:16:00;;;;;;;;;;;;;;;20.49;34.45;103036.75;7280467;19;153793;-52
2022/02/11 14:18:27;;;;;;;;;;;;;;;20.46;34.77;103038.09;7277675;19;154284;-52
2022/02/11 14:20:56;;;;;;;;;;;;;;;20.44;34.64;103036.66;7279422;19;152480;-52
2022/02/11 14:23:23;;;;;;;;;;;;;;;20.42;34.58;103045.31;7280062;19;152799;-52
2022/02/11 14:25:50;;;;;;;;;;;;;;;20.37;34.68;103032.06;7277721;19;154503;-52
2022/02/11 14:28:17;;;;;;;;;;;;;;;20.37;34.60;103034.88;7280160;19;151844;-52
2022/02/11 14:30:44;;;;;;;;;;;;;;;20.33;34.68;103030.03;7280641;19;153537;-52
2022/02/11 14:33:12;;;;;;;;;;;;;;;20.32;35.13;103033.94;7286552;19;154120;-52
2022/02/11 14:35:39;;;;;;;;;;;;;;;20.31;34.91;103030.25;7276489;19;152796;-51
2022/02/11 14:38:06;;;;;;;;;;;;;;;20.31;35.21;103021.84;7284890;19;153574;-52
2022/02/11 14:40:33;;;;;;;;;;;;;;;20.33;34.93;103007.56;7286253;19;152454;-52
2022/02/11 14:43:07;;;;;;;;;;;;;;;20.34;35.33;103018.53;7287185;19;152971;-52
2022/02/11 14:45:35;;;;;;;;;;;;;;;20.36;35.24;103013.50;7286199;19;154308;-52
2022/02/11 14:48:02;;;;;;;;;;;;;;;20.40;35.53;103013.84;7285783;19;152308;-52
2022/02/11 14:50:30;;;;;;;;;;;;;;;20.43;35.40;102996.50;7286287;19;152842;-52
2022/02/11 14:52:59;;;;;;;;;;;;;;;20.47;35.09;102997.66;7282604;19;152465;-52
2022/02/11 14:55:34;;;;;;;;;;;;;;;20.50;35.49;103002.75;7293819;19;151863;-52
2022/02/11 14:58:02;;;;;;;;;;;;;;;20.53;35.01;102996.66;7284989;19;154126;-52
2022/02/11 15:00:32;;;;;;;;;;;;;;;20.57;35.10;102992.22;7285141;19;151923;-52
2022/02/11 15:03:02;;;;;;;;;;;;;;;20.62;35.45;102988.63;7284096;19;153141;-52
2022/02/11 15:05:34;;;;;;;;;;;;;;;20.66;35.45;102987.00;7284845;19;154259;-52
2022/02/11 15:08:00;;;;;;;;;;;;;;;20.69;35.22;102998.56;7282415;19;151966;-52
2022/02/11 15:10:27;;;;;;;;;;;;;;;20.71;34.99;102990.72;7283732;19;151938;-52
2022/02/11 15:12:54;;;;;;;;;;;;;;;20.74;35.08;103001.44;7284187;19;154129;-52
2022/02/11 15:15:23;;;;;;;;;;;;;;;20.77;34.77;103006.53;7285269;19;152476;-52
2022/02/11 15:17:49;;;;;;;;;;;;;;;20.78;34.90;103008.22;7290186;19;152292;-52
2022/02/11 15:20:16;;;;;;;;;;;;;;;20.80;34.50;103000.38;7285031;19;152132;-52
2022/02/11 15:22:43;;;;;;;;;;;;;;;20.81;34.68;103002.06;7284964;19;152143;-52
2022/02/11 15:25:10;;;;;;;;;;;;;;;20.83;34.41;102999.03;7284408;19;154488;-52
2022/02/11 15:27:37;;;;;;;;;;;;;;;20.83;34.36;102997.06;7285715;19;151840;-52
2022/02/11 15:30:05;;;;;;;;;;;;;;;20.85;34.19;102999.59;7282487;19;152801;-52
2022/02/11 15:32:32;;;;;;;;;;;;;;;20.85;34.44;102999.59;7284887;19;153926;-52
2022/02/11 15:34:59;;;;;;;;;;;;;;;20.86;34.01;102995.69;7285648;19;151938;-52
2022/02/11 15:37:25;;;;;;;;;;;;;;;20.86;34.20;102987.25;7285616;19;152725;-52
2022/02/11 15:39:52;;;;;;;;;;;;;;;20.85;34.48;102986.41;7291894;19;154139;-52
2022/02/11 15:42:20;;;;;;;;;;;;;;;20.86;34.30;102987.25;7283296;19;152834;-52
2022/02/11 15:44:46;;;;;;;;;;;;;;;20.85;33.93;102991.16;7282962;19;154113;-52
2022/02/11 15:47:13;;;;;;;;;;;;;;;20.83;34.35;102988.63;7283428;19;152030;-52
2022/02/11 15:49:40;;;;;;;;;;;;;;;20.83;34.00;102982.16;7284399;19;152778;-52
2022/02/11 15:52:08;;;;;;;;;;;;;;;20.82;33.99;102992.56;7284718;19;154565;-52
2022/02/11 15:54:35;;;;;;;;;;;;;;;20.81;33.81;102984.38;7283586;19;152066;-52
2022/02/11 15:57:02;;;;;;;;;;;;;;;20.81;34.16;102981.56;7285423;19;153244;-52
2022/02/11 15:59:29;;;;;;;;;;;;;;;20.80;34.02;102979.88;7284277;19;153344;-53
2022/02/11 16:01:56;;;;;;;;;;;;;;;20.78;34.30;102977.31;7289926;19;151989;-52
2022/02/11 16:04:23;;;;;;;;;;;;;;;20.78;34.14;102974.50;7282228;19;153558;-52
2022/02/11 16:06:50;;;;;;;;;;;;;;;20.76;34.27;102973.91;7283273;19;151765;-52
2022/02/11 16:09:17;;;;;;;;;;;;;;;20.73;34.32;102980.06;7280385;19;153698;-52
2022/02/11 16:11:44;;;;;;;;;;;;;;;20.72;34.28;102969.06;7283712;19;154419;-52
2022/02/11 16:14:15;;;;;;;;;;;;;;;20.70;34.29;102974.97;7281458;19;151974;-52
2022/02/11 16:16:43;;;;;;;;;;;;;;;20.69;34.08;102981.69;7284319;19;153739;-52
2022/02/11 16:19:10;;;;;;;;;;;;;;;20.66;33.87;102976.63;7282780;19;153565;-52
2022/02/11 16:21:37;;;;;;;;;;;;;;;20.64;33.77;102976.00;7289535;19;152073;-52
2022/02/11 16:24:04;;;;;;;;;;;;;;;20.62;33.75;102985.81;7279575;19;152454;-52